sensor_id;sensor_type;location;lat;lon;timestamp;P1;durP1;ratioP1;P2;durP2;ratioP2
40971;SDS011;26701;47.408;19.174;2023-06-22T00:01:58;766.88;;;720.90;;
40971;SDS011;26701;47.408;19.174;2023-06-22T00:04:24;769.33;;;723.33;;
40971;SDS011;26701;47.408;19.174;2023-06-22T00:06:51;750.35;;;705.40;;
40971;SDS011;26701;47.408;19.174;2023-06-22T00:09:17;764.67;;;718.25;;
40971;SDS011;26701;47.408;19.174;2023-06-22T00:11:43;768.78;;;723.00;;
40971;SDS011;26701;47.408;19.174;2023-06-22T00:14:09;784.85;;;737.92;;
40971;SDS011;26701;47.408;19.174;2023-06-22T00:16:35;795.22;;;747.50;;
40971;SDS011;26701;47.408;19.174;2023-06-22T00:19:01;773.22;;;727.50;;
40971;SDS011;26701;47.408;19.174;2023-06-22T00:21:28;757.80;;;712.63;;
40971;SDS011;26701;47.408;19.174;2023-06-22T00:23:55;765.40;;;719.47;;
40971;SDS011;26701;47.408;19.174;2023-06-22T00:26:22;794.80;;;747.25;;
40971;SDS011;26701;47.408;19.174;2023-06-22T00:28:49;785.20;;;738.05;;
40971;SDS011;26701;47.408;19.174;2023-06-22T00:31:15;764.17;;;718.03;;
40971;SDS011;26701;47.408;19.174;2023-06-22T00:33:41;777.70;;;731.13;;
40971;SDS011;26701;47.408;19.174;2023-06-22T00:36:07;798.40;;;750.30;;
40971;SDS011;26701;47.408;19.174;2023-06-22T00:38:33;760.67;;;715.40;;
40971;SDS011;26701;47.408;19.174;2023-06-22T00:41:00;779.70;;;732.95;;
40971;SDS011;26701;47.408;19.174;2023-06-22T00:43:26;769.85;;;723.28;;
40971;SDS011;26701;47.408;19.174;2023-06-22T00:45:55;794.28;;;746.88;;
40971;SDS011;26701;47.408;19.174;2023-06-22T00:48:21;773.35;;;727.65;;
40971;SDS011;26701;47.408;19.174;2023-06-22T00:50:48;790.70;;;743.75;;
40971;SDS011;26701;47.408;19.174;2023-06-22T00:53:16;781.35;;;734.75;;
40971;SDS011;26701;47.408;19.174;2023-06-22T00:55:43;783.95;;;737.13;;
40971;SDS011;26701;47.408;19.174;2023-06-22T00:58:12;788.70;;;741.55;;
40971;SDS011;26701;47.408;19.174;2023-06-22T01:00:40;762.75;;;717.30;;
40971;SDS011;26701;47.408;19.174;2023-06-22T01:03:06;788.40;;;741.55;;
40971;SDS011;26701;47.408;19.174;2023-06-22T01:05:36;749.65;;;705.38;;
40971;SDS011;26701;47.408;19.174;2023-06-22T01:08:46;763.78;;;718.30;;
40971;SDS011;26701;47.408;19.174;2023-06-22T01:11:16;768.17;;;722.33;;
40971;SDS011;26701;47.408;19.174;2023-06-22T01:16:23;758.58;;;713.50;;
40971;SDS011;26701;47.408;19.174;2023-06-22T01:18:52;766.33;;;720.92;;
40971;SDS011;26701;47.408;19.174;2023-06-22T01:21:21;782.13;;;735.63;;
40971;SDS011;26701;47.408;19.174;2023-06-22T01:26:25;792.50;;;745.10;;
40971;SDS011;26701;47.408;19.174;2023-06-22T01:28:59;778.80;;;732.63;;
40971;SDS011;26701;47.408;19.174;2023-06-22T01:31:27;786.42;;;739.65;;
40971;SDS011;26701;47.408;19.174;2023-06-22T01:33:58;790.25;;;743.50;;
40971;SDS011;26701;47.408;19.174;2023-06-22T01:36:26;789.10;;;742.30;;
40971;SDS011;26701;47.408;19.174;2023-06-22T01:38:54;792.95;;;745.67;;
40971;SDS011;26701;47.408;19.174;2023-06-22T01:41:24;771.47;;;725.85;;
40971;SDS011;26701;47.408;19.174;2023-06-22T01:43:51;782.17;;;736.10;;
40971;SDS011;26701;47.408;19.174;2023-06-22T01:46:19;750.38;;;706.35;;
40971;SDS011;26701;47.408;19.174;2023-06-22T01:48:46;779.83;;;733.28;;
40971;SDS011;26701;47.408;19.174;2023-06-22T01:51:13;744.47;;;700.78;;
40971;SDS011;26701;47.408;19.174;2023-06-22T01:53:39;779.90;;;733.60;;
40971;SDS011;26701;47.408;19.174;2023-06-22T01:56:06;778.28;;;731.95;;
40971;SDS011;26701;47.408;19.174;2023-06-22T01:58:33;778.20;;;731.88;;
40971;SDS011;26701;47.408;19.174;2023-06-22T02:01:11;779.72;;;733.25;;
40971;SDS011;26701;47.408;19.174;2023-06-22T02:03:47;779.33;;;732.95;;
40971;SDS011;26701;47.408;19.174;2023-06-22T02:06:30;783.55;;;736.75;;
40971;SDS011;26701;47.408;19.174;2023-06-22T02:09:01;791.80;;;744.88;;
40971;SDS011;26701;47.408;19.174;2023-06-22T02:11:31;791.17;;;744.25;;
40971;SDS011;26701;47.408;19.174;2023-06-22T02:13:58;792.25;;;744.97;;
40971;SDS011;26701;47.408;19.174;2023-06-22T02:16:25;787.75;;;740.88;;
40971;SDS011;26701;47.408;19.174;2023-06-22T02:18:55;808.88;;;760.92;;
40971;SDS011;26701;47.408;19.174;2023-06-22T02:21:28;760.97;;;715.75;;
40971;SDS011;26701;47.408;19.174;2023-06-22T02:23:54;756.95;;;712.28;;
40971;SDS011;26701;47.408;19.174;2023-06-22T02:26:21;786.88;;;740.53;;
40971;SDS011;26701;47.408;19.174;2023-06-22T02:28:47;755.40;;;711.15;;
40971;SDS011;26701;47.408;19.174;2023-06-22T02:31:16;769.42;;;723.97;;
40971;SDS011;26701;47.408;19.174;2023-06-22T02:33:42;771.38;;;725.70;;
40971;SDS011;26701;47.408;19.174;2023-06-22T02:36:09;763.63;;;718.58;;
40971;SDS011;26701;47.408;19.174;2023-06-22T02:38:38;762.20;;;717.22;;
40971;SDS011;26701;47.408;19.174;2023-06-22T02:41:04;798.78;;;751.53;;
40971;SDS011;26701;47.408;19.174;2023-06-22T02:43:31;750.85;;;707.03;;
40971;SDS011;26701;47.408;19.174;2023-06-22T02:45:57;759.50;;;714.67;;
40971;SDS011;26701;47.408;19.174;2023-06-22T02:48:24;775.47;;;729.38;;
40971;SDS011;26701;47.408;19.174;2023-06-22T02:50:50;773.45;;;727.75;;
40971;SDS011;26701;47.408;19.174;2023-06-22T02:53:16;780.33;;;733.97;;
40971;SDS011;26701;47.408;19.174;2023-06-22T02:55:45;780.88;;;734.78;;
40971;SDS011;26701;47.408;19.174;2023-06-22T02:58:11;781.33;;;735.10;;
40971;SDS011;26701;47.408;19.174;2023-06-22T03:00:37;779.92;;;733.90;;
40971;SDS011;26701;47.408;19.174;2023-06-22T03:03:04;799.45;;;751.97;;
40971;SDS011;26701;47.408;19.174;2023-06-22T03:05:30;780.42;;;733.80;;
40971;SDS011;26701;47.408;19.174;2023-06-22T03:07:58;757.90;;;713.15;;
40971;SDS011;26701;47.408;19.174;2023-06-22T03:10:26;751.70;;;707.53;;
40971;SDS011;26701;47.408;19.174;2023-06-22T03:12:53;759.45;;;714.50;;
40971;SDS011;26701;47.408;19.174;2023-06-22T03:15:19;763.05;;;717.97;;
40971;SDS011;26701;47.408;19.174;2023-06-22T03:17:45;739.60;;;696.65;;
40971;SDS011;26701;47.408;19.174;2023-06-22T03:20:12;753.10;;;708.63;;
40971;SDS011;26701;47.408;19.174;2023-06-22T03:22:38;754.38;;;709.83;;
40971;SDS011;26701;47.408;19.174;2023-06-22T03:25:04;748.20;;;704.20;;
40971;SDS011;26701;47.408;19.174;2023-06-22T03:27:37;760.78;;;716.10;;
40971;SDS011;26701;47.408;19.174;2023-06-22T03:30:07;753.65;;;709.10;;
40971;SDS011;26701;47.408;19.174;2023-06-22T03:32:34;763.80;;;718.50;;
40971;SDS011;26701;47.408;19.174;2023-06-22T03:35:00;766.22;;;720.53;;
40971;SDS011;26701;47.408;19.174;2023-06-22T03:37:27;782.35;;;735.53;;
40971;SDS011;26701;47.408;19.174;2023-06-22T03:39:53;804.45;;;756.38;;
40971;SDS011;26701;47.408;19.174;2023-06-22T03:42:19;793.17;;;746.10;;
40971;SDS011;26701;47.408;19.174;2023-06-22T03:44:46;797.03;;;749.40;;
40971;SDS011;26701;47.408;19.174;2023-06-22T03:47:12;782.83;;;736.10;;
40971;SDS011;26701;47.408;19.174;2023-06-22T03:49:38;787.20;;;740.22;;
40971;SDS011;26701;47.408;19.174;2023-06-22T03:52:04;800.15;;;752.55;;
40971;SDS011;26701;47.408;19.174;2023-06-22T03:54:30;803.40;;;755.53;;
40971;SDS011;26701;47.408;19.174;2023-06-22T03:56:57;803.17;;;755.42;;
40971;SDS011;26701;47.408;19.174;2023-06-22T03:59:23;785.38;;;738.80;;
40971;SDS011;26701;47.408;19.174;2023-06-22T04:01:49;781.53;;;735.35;;
40971;SDS011;26701;47.408;19.174;2023-06-22T04:04:18;792.75;;;745.67;;
40971;SDS011;26701;47.408;19.174;2023-06-22T04:06:43;766.28;;;721.33;;
40971;SDS011;26701;47.408;19.174;2023-06-22T04:09:10;761.58;;;716.38;;
40971;SDS011;26701;47.408;19.174;2023-06-22T04:11:36;782.58;;;736.25;;
40971;SDS011;26701;47.408;19.174;2023-06-22T04:14:02;789.90;;;742.75;;
40971;SDS011;26701;47.408;19.174;2023-06-22T04:16:28;758.30;;;712.85;;
40971;SDS011;26701;47.408;19.174;2023-06-22T04:18:55;780.75;;;734.10;;
40971;SDS011;26701;47.408;19.174;2023-06-22T04:21:21;784.50;;;737.70;;
40971;SDS011;26701;47.408;19.174;2023-06-22T04:23:47;775.30;;;728.40;;
40971;SDS011;26701;47.408;19.174;2023-06-22T04:26:13;775.13;;;728.65;;
40971;SDS011;26701;47.408;19.174;2023-06-22T04:28:40;774.65;;;728.45;;
40971;SDS011;26701;47.408;19.174;2023-06-22T04:31:06;768.17;;;722.42;;
40971;SDS011;26701;47.408;19.174;2023-06-22T04:33:32;800.67;;;752.40;;
40971;SDS011;26701;47.408;19.174;2023-06-22T04:35:58;775.38;;;729.45;;
40971;SDS011;26701;47.408;19.174;2023-06-22T04:38:29;787.50;;;740.30;;
40971;SDS011;26701;47.408;19.174;2023-06-22T04:40:58;772.65;;;726.80;;
40971;SDS011;26701;47.408;19.174;2023-06-22T04:43:27;783.28;;;736.60;;
40971;SDS011;26701;47.408;19.174;2023-06-22T04:45:56;802.58;;;754.63;;
40971;SDS011;26701;47.408;19.174;2023-06-22T04:48:28;797.72;;;750.10;;
40971;SDS011;26701;47.408;19.174;2023-06-22T04:50:57;777.38;;;730.42;;
40971;SDS011;26701;47.408;19.174;2023-06-22T04:53:28;788.65;;;741.22;;
40971;SDS011;26701;47.408;19.174;2023-06-22T04:55:55;791.42;;;743.75;;
40971;SDS011;26701;47.408;19.174;2023-06-22T04:58:21;788.35;;;740.65;;
40971;SDS011;26701;47.408;19.174;2023-06-22T05:00:47;781.13;;;734.28;;
40971;SDS011;26701;47.408;19.174;2023-06-22T05:03:16;791.30;;;742.58;;
40971;SDS011;26701;47.408;19.174;2023-06-22T05:05:43;783.05;;;735.78;;
40971;SDS011;26701;47.408;19.174;2023-06-22T05:08:09;815.72;;;766.33;;
40971;SDS011;26701;47.408;19.174;2023-06-22T05:10:35;802.25;;;753.72;;
40971;SDS011;26701;47.408;19.174;2023-06-22T05:13:02;803.53;;;755.13;;
40971;SDS011;26701;47.408;19.174;2023-06-22T05:15:28;804.78;;;755.92;;
40971;SDS011;26701;47.408;19.174;2023-06-22T05:17:55;812.03;;;763.07;;
40971;SDS011;26701;47.408;19.174;2023-06-22T05:20:23;801.30;;;753.00;;
40971;SDS011;26701;47.408;19.174;2023-06-22T05:22:49;793.35;;;745.15;;
40971;SDS011;26701;47.408;19.174;2023-06-22T05:25:15;797.75;;;749.38;;
40971;SDS011;26701;47.408;19.174;2023-06-22T05:27:41;798.20;;;749.67;;
40971;SDS011;26701;47.408;19.174;2023-06-22T05:30:09;794.13;;;745.47;;
40971;SDS011;26701;47.408;19.174;2023-06-22T05:32:36;811.60;;;762.35;;
40971;SDS011;26701;47.408;19.174;2023-06-22T05:35:03;804.58;;;756.10;;
40971;SDS011;26701;47.408;19.174;2023-06-22T05:37:29;821.88;;;772.17;;
40971;SDS011;26701;47.408;19.174;2023-06-22T05:39:55;814.60;;;765.28;;
40971;SDS011;26701;47.408;19.174;2023-06-22T05:42:22;836.05;;;785.53;;
40971;SDS011;26701;47.408;19.174;2023-06-22T05:44:51;812.00;;;762.70;;
40971;SDS011;26701;47.408;19.174;2023-06-22T05:47:19;832.03;;;780.97;;
40971;SDS011;26701;47.408;19.174;2023-06-22T05:49:45;830.15;;;779.88;;
40971;SDS011;26701;47.408;19.174;2023-06-22T05:52:11;852.83;;;801.15;;
40971;SDS011;26701;47.408;19.174;2023-06-22T05:54:37;815.25;;;765.83;;
40971;SDS011;26701;47.408;19.174;2023-06-22T05:57:04;827.22;;;777.47;;
40971;SDS011;26701;47.408;19.174;2023-06-22T05:59:30;820.72;;;771.00;;
40971;SDS011;26701;47.408;19.174;2023-06-22T06:01:56;826.47;;;776.28;;
40971;SDS011;26701;47.408;19.174;2023-06-22T06:04:22;807.00;;;758.30;;
40971;SDS011;26701;47.408;19.174;2023-06-22T06:06:48;807.45;;;758.47;;
40971;SDS011;26701;47.408;19.174;2023-06-22T06:09:14;814.05;;;764.10;;
40971;SDS011;26701;47.408;19.174;2023-06-22T06:11:40;803.88;;;754.95;;
40971;SDS011;26701;47.408;19.174;2023-06-22T06:14:07;815.70;;;766.13;;
40971;SDS011;26701;47.408;19.174;2023-06-22T06:16:33;802.85;;;753.95;;
40971;SDS011;26701;47.408;19.174;2023-06-22T06:18:59;802.10;;;752.75;;
40971;SDS011;26701;47.408;19.174;2023-06-22T06:21:25;800.65;;;751.58;;
40971;SDS011;26701;47.408;19.174;2023-06-22T06:23:51;797.10;;;748.35;;
40971;SDS011;26701;47.408;19.174;2023-06-22T06:26:18;789.90;;;741.38;;
40971;SDS011;26701;47.408;19.174;2023-06-22T06:28:53;800.92;;;751.83;;
40971;SDS011;26701;47.408;19.174;2023-06-22T06:31:19;804.95;;;755.05;;
40971;SDS011;26701;47.408;19.174;2023-06-22T06:33:46;839.67;;;788.05;;
40971;SDS011;26701;47.408;19.174;2023-06-22T06:36:12;814.70;;;764.63;;
40971;SDS011;26701;47.408;19.174;2023-06-22T06:38:38;808.30;;;758.40;;
40971;SDS011;26701;47.408;19.174;2023-06-22T06:41:04;788.00;;;739.45;;
40971;SDS011;26701;47.408;19.174;2023-06-22T06:43:30;784.15;;;735.67;;
40971;SDS011;26701;47.408;19.174;2023-06-22T06:45:56;788.83;;;739.80;;
40971;SDS011;26701;47.408;19.174;2023-06-22T06:48:22;771.45;;;723.90;;
40971;SDS011;26701;47.408;19.174;2023-06-22T06:50:48;810.60;;;760.03;;
40971;SDS011;26701;47.408;19.174;2023-06-22T06:53:15;834.60;;;782.72;;
40971;SDS011;26701;47.408;19.174;2023-06-22T06:55:41;790.67;;;741.20;;
40971;SDS011;26701;47.408;19.174;2023-06-22T06:58:07;803.33;;;753.20;;
40971;SDS011;26701;47.408;19.174;2023-06-22T07:00:34;807.43;;;757.07;;
40971;SDS011;26701;47.408;19.174;2023-06-22T07:03:01;803.20;;;752.72;;
40971;SDS011;26701;47.408;19.174;2023-06-22T07:05:27;818.22;;;766.88;;
40971;SDS011;26701;47.408;19.174;2023-06-22T07:07:53;774.70;;;726.20;;
40971;SDS011;26701;47.408;19.174;2023-06-22T07:10:19;803.92;;;753.53;;
40971;SDS011;26701;47.408;19.174;2023-06-22T07:12:46;792.90;;;743.05;;
40971;SDS011;26701;47.408;19.174;2023-06-22T07:15:12;791.22;;;741.63;;
40971;SDS011;26701;47.408;19.174;2023-06-22T07:17:38;795.80;;;746.17;;
40971;SDS011;26701;47.408;19.174;2023-06-22T07:20:06;827.72;;;775.22;;
40971;SDS011;26701;47.408;19.174;2023-06-22T07:22:36;850.40;;;797.05;;
40971;SDS011;26701;47.408;19.174;2023-06-22T07:25:02;853.95;;;799.83;;
40971;SDS011;26701;47.408;19.174;2023-06-22T07:27:37;871.10;;;816.47;;
40971;SDS011;26701;47.408;19.174;2023-06-22T07:30:05;873.40;;;818.70;;
40971;SDS011;26701;47.408;19.174;2023-06-22T07:32:33;880.67;;;824.58;;
40971;SDS011;26701;47.408;19.174;2023-06-22T07:35:00;862.83;;;808.33;;
40971;SDS011;26701;47.408;19.174;2023-06-22T07:37:27;900.85;;;843.83;;
40971;SDS011;26701;47.408;19.174;2023-06-22T07:39:53;878.15;;;822.65;;
40971;SDS011;26701;47.408;19.174;2023-06-22T07:42:23;924.35;;;865.63;;
40971;SDS011;26701;47.408;19.174;2023-06-22T07:44:50;908.63;;;851.45;;
40971;SDS011;26701;47.408;19.174;2023-06-22T07:47:16;913.15;;;855.30;;
40971;SDS011;26701;47.408;19.174;2023-06-22T07:49:46;894.83;;;838.10;;
40971;SDS011;26701;47.408;19.174;2023-06-22T07:52:11;900.22;;;843.20;;
40971;SDS011;26701;47.408;19.174;2023-06-22T07:54:38;921.17;;;862.75;;
40971;SDS011;26701;47.408;19.174;2023-06-22T07:57:04;915.30;;;856.67;;
40971;SDS011;26701;47.408;19.174;2023-06-22T07:59:30;916.00;;;857.90;;
40971;SDS011;26701;47.408;19.174;2023-06-22T08:01:56;878.08;;;821.95;;
40971;SDS011;26701;47.408;19.174;2023-06-22T08:04:22;886.45;;;829.95;;
40971;SDS011;26701;47.408;19.174;2023-06-22T08:06:48;867.00;;;811.35;;
40971;SDS011;26701;47.408;19.174;2023-06-22T08:09:14;900.05;;;841.30;;
40971;SDS011;26701;47.408;19.174;2023-06-22T08:11:41;880.03;;;823.53;;
40971;SDS011;26701;47.408;19.174;2023-06-22T08:14:07;893.17;;;835.63;;
40971;SDS011;26701;47.408;19.174;2023-06-22T08:16:33;875.20;;;818.63;;
40971;SDS011;26701;47.408;19.174;2023-06-22T08:18:59;849.40;;;793.78;;
40971;SDS011;26701;47.408;19.174;2023-06-22T08:21:25;859.25;;;803.55;;
40971;SDS011;26701;47.408;19.174;2023-06-22T08:23:51;841.35;;;787.10;;
40971;SDS011;26701;47.408;19.174;2023-06-22T08:26:17;848.92;;;794.03;;
40971;SDS011;26701;47.408;19.174;2023-06-22T08:28:43;859.67;;;804.22;;
40971;SDS011;26701;47.408;19.174;2023-06-22T08:31:09;872.97;;;816.30;;
40971;SDS011;26701;47.408;19.174;2023-06-22T08:33:37;876.80;;;819.95;;
40971;SDS011;26701;47.408;19.174;2023-06-22T08:36:03;856.70;;;800.63;;
40971;SDS011;26701;47.408;19.174;2023-06-22T08:38:31;850.60;;;794.90;;
40971;SDS011;26701;47.408;19.174;2023-06-22T08:40:57;845.97;;;790.78;;
40971;SDS011;26701;47.408;19.174;2023-06-22T08:43:23;882.28;;;824.65;;
40971;SDS011;26701;47.408;19.174;2023-06-22T08:45:49;874.80;;;817.20;;
40971;SDS011;26701;47.408;19.174;2023-06-22T08:48:15;833.85;;;779.13;;
40971;SDS011;26701;47.408;19.174;2023-06-22T08:50:41;886.67;;;827.80;;
40971;SDS011;26701;47.408;19.174;2023-06-22T08:53:08;882.13;;;824.47;;
40971;SDS011;26701;47.408;19.174;2023-06-22T08:55:34;900.05;;;840.85;;
40971;SDS011;26701;47.408;19.174;2023-06-22T08:58:00;887.65;;;829.13;;
40971;SDS011;26701;47.408;19.174;2023-06-22T09:00:26;897.42;;;838.47;;
40971;SDS011;26701;47.408;19.174;2023-06-22T09:02:54;930.47;;;868.70;;
40971;SDS011;26701;47.408;19.174;2023-06-22T09:05:24;899.17;;;839.67;;
40971;SDS011;26701;47.408;19.174;2023-06-22T09:07:51;911.43;;;851.33;;
40971;SDS011;26701;47.408;19.174;2023-06-22T09:10:19;918.80;;;858.00;;
40971;SDS011;26701;47.408;19.174;2023-06-22T09:12:49;906.67;;;847.13;;
40971;SDS011;26701;47.408;19.174;2023-06-22T09:15:17;909.00;;;849.45;;
40971;SDS011;26701;47.408;19.174;2023-06-22T09:17:43;916.78;;;856.42;;
40971;SDS011;26701;47.408;19.174;2023-06-22T09:20:11;939.38;;;877.78;;
40971;SDS011;26701;47.408;19.174;2023-06-22T09:22:40;889.47;;;830.88;;
40971;SDS011;26701;47.408;19.174;2023-06-22T09:25:07;937.75;;;876.03;;
40971;SDS011;26701;47.408;19.174;2023-06-22T09:27:33;898.38;;;839.28;;
40971;SDS011;26701;47.408;19.174;2023-06-22T09:29:59;921.38;;;860.75;;
40971;SDS011;26701;47.408;19.174;2023-06-22T09:32:25;914.60;;;854.05;;
40971;SDS011;26701;47.408;19.174;2023-06-22T09:34:52;972.80;;;908.83;;
40971;SDS011;26701;47.408;19.174;2023-06-22T09:37:18;971.92;;;907.75;;
40971;SDS011;26701;47.408;19.174;2023-06-22T09:39:44;947.03;;;884.30;;
40971;SDS011;26701;47.408;19.174;2023-06-22T09:42:10;927.33;;;863.60;;
40971;SDS011;26701;47.408;19.174;2023-06-22T09:44:38;972.92;;;908.67;;
40971;SDS011;26701;47.408;19.174;2023-06-22T09:47:04;946.75;;;884.22;;
40971;SDS011;26701;47.408;19.174;2023-06-22T09:49:30;966.00;;;901.22;;
40971;SDS011;26701;47.408;19.174;2023-06-22T09:51:57;945.58;;;883.15;;
40971;SDS011;26701;47.408;19.174;2023-06-22T09:54:23;930.40;;;868.35;;
40971;SDS011;26701;47.408;19.174;2023-06-22T09:56:49;918.15;;;856.58;;
40971;SDS011;26701;47.408;19.174;2023-06-22T09:59:15;969.85;;;904.22;;
40971;SDS011;26701;47.408;19.174;2023-06-22T10:01:42;922.00;;;860.42;;
40971;SDS011;26701;47.408;19.174;2023-06-22T10:04:08;992.30;;;925.60;;
40971;SDS011;26701;47.408;19.174;2023-06-22T10:06:34;1176.88;;;999.90;;
40971;SDS011;26701;47.408;19.174;2023-06-22T10:09:00;1185.22;;;999.90;;
40971;SDS011;26701;47.408;19.174;2023-06-22T10:11:26;1181.20;;;999.90;;
40971;SDS011;26701;47.408;19.174;2023-06-22T10:13:55;1179.60;;;999.90;;
40971;SDS011;26701;47.408;19.174;2023-06-22T10:16:23;1156.60;;;999.90;;
40971;SDS011;26701;47.408;19.174;2023-06-22T10:18:58;1153.82;;;999.90;;
40971;SDS011;26701;47.408;19.174;2023-06-22T10:21:23;1132.47;;;999.90;;
40971;SDS011;26701;47.408;19.174;2023-06-22T10:23:52;1060.68;;;985.80;;
40971;SDS011;26701;47.408;19.174;2023-06-22T10:26:18;1029.90;;;956.00;;
40971;SDS011;26701;47.408;19.174;2023-06-22T10:28:44;986.95;;;915.97;;
40971;SDS011;26701;47.408;19.174;2023-06-22T10:31:10;1040.30;;;965.33;;
40971;SDS011;26701;47.408;19.174;2023-06-22T10:33:36;918.10;;;852.35;;
40971;SDS011;26701;47.408;19.174;2023-06-22T10:36:02;952.95;;;884.65;;
40971;SDS011;26701;47.408;19.174;2023-06-22T10:38:29;944.42;;;876.30;;
40971;SDS011;26701;47.408;19.174;2023-06-22T10:40:55;925.90;;;858.97;;
40971;SDS011;26701;47.408;19.174;2023-06-22T10:43:20;810.58;;;752.92;;
40971;SDS011;26701;47.408;19.174;2023-06-22T10:45:46;783.45;;;727.60;;
40971;SDS011;26701;47.408;19.174;2023-06-22T10:48:12;758.80;;;704.78;;
40971;SDS011;26701;47.408;19.174;2023-06-22T10:50:38;748.88;;;695.20;;
40971;SDS011;26701;47.408;19.174;2023-06-22T10:53:04;765.80;;;710.88;;
40971;SDS011;26701;47.408;19.174;2023-06-22T10:55:30;776.42;;;720.95;;
40971;SDS011;26701;47.408;19.174;2023-06-22T10:57:55;798.40;;;741.15;;
40971;SDS011;26701;47.408;19.174;2023-06-22T11:00:22;777.10;;;721.17;;
40971;SDS011;26701;47.408;19.174;2023-06-22T11:02:48;812.33;;;753.95;;
40971;SDS011;26701;47.408;19.174;2023-06-22T11:05:14;828.88;;;769.40;;
40971;SDS011;26701;47.408;19.174;2023-06-22T11:07:43;796.90;;;740.20;;
40971;SDS011;26701;47.408;19.174;2023-06-22T11:10:09;828.10;;;768.78;;
40971;SDS011;26701;47.408;19.174;2023-06-22T11:12:36;904.20;;;839.03;;
40971;SDS011;26701;47.408;19.174;2023-06-22T11:15:02;887.67;;;823.20;;
40971;SDS011;26701;47.408;19.174;2023-06-22T11:17:28;925.15;;;856.90;;
40971;SDS011;26701;47.408;19.174;2023-06-22T11:19:53;945.42;;;876.05;;
40971;SDS011;26701;47.408;19.174;2023-06-22T11:22:19;903.30;;;837.78;;
40971;SDS011;26701;47.408;19.174;2023-06-22T11:24:45;963.00;;;892.90;;
40971;SDS011;26701;47.408;19.174;2023-06-22T11:27:11;996.17;;;923.38;;
40971;SDS011;26701;47.408;19.174;2023-06-22T11:29:37;997.30;;;924.83;;
40971;SDS011;26701;47.408;19.174;2023-06-22T11:34:31;1029.22;;;954.95;;
40971;SDS011;26701;47.408;19.174;2023-06-22T11:36:57;851.65;;;790.75;;
40971;SDS011;26701;47.408;19.174;2023-06-22T11:39:23;927.10;;;860.08;;
40971;SDS011;26701;47.408;19.174;2023-06-22T11:41:49;857.30;;;795.65;;
40971;SDS011;26701;47.408;19.174;2023-06-22T11:44:15;871.60;;;808.97;;
40971;SDS011;26701;47.408;19.174;2023-06-22T11:46:41;946.63;;;877.38;;
40971;SDS011;26701;47.408;19.174;2023-06-22T11:49:07;978.30;;;906.65;;
40971;SDS011;26701;47.408;19.174;2023-06-22T11:51:33;869.00;;;806.47;;
40971;SDS011;26701;47.408;19.174;2023-06-22T11:53:59;902.80;;;837.28;;
40971;SDS011;26701;47.408;19.174;2023-06-22T11:56:25;920.05;;;853.28;;
40971;SDS011;26701;47.408;19.174;2023-06-22T12:01:19;939.35;;;870.95;;
40971;SDS011;26701;47.408;19.174;2023-06-22T12:03:46;974.40;;;903.25;;
40971;SDS011;26701;47.408;19.174;2023-06-22T12:06:13;1035.60;;;959.28;;
40971;SDS011;26701;47.408;19.174;2023-06-22T12:08:39;916.80;;;849.78;;
40971;SDS011;26701;47.408;19.174;2023-06-22T12:11:05;992.90;;;919.58;;
40971;SDS011;26701;47.408;19.174;2023-06-22T12:13:30;987.65;;;914.42;;
40971;SDS011;26701;47.408;19.174;2023-06-22T12:15:56;935.40;;;865.53;;
40971;SDS011;26701;47.408;19.174;2023-06-22T12:18:22;870.17;;;806.70;;
40971;SDS011;26701;47.408;19.174;2023-06-22T12:20:49;915.85;;;849.00;;
40971;SDS011;26701;47.408;19.174;2023-06-22T12:23:15;939.03;;;869.80;;
40971;SDS011;26701;47.408;19.174;2023-06-22T12:25:41;876.08;;;812.05;;
40971;SDS011;26701;47.408;19.174;2023-06-22T12:28:06;889.80;;;823.95;;
40971;SDS011;26701;47.408;19.174;2023-06-22T12:30:33;792.65;;;734.95;;
40971;SDS011;26701;47.408;19.174;2023-06-22T12:32:59;768.17;;;712.08;;
40971;SDS011;26701;47.408;19.174;2023-06-22T12:35:24;809.28;;;749.97;;
40971;SDS011;26701;47.408;19.174;2023-06-22T12:37:50;783.10;;;726.15;;
40971;SDS011;26701;47.408;19.174;2023-06-22T12:40:16;806.60;;;747.47;;
40971;SDS011;26701;47.408;19.174;2023-06-22T12:42:42;973.80;;;901.00;;
40971;SDS011;26701;47.408;19.174;2023-06-22T12:45:08;843.53;;;781.63;;
40971;SDS011;26701;47.408;19.174;2023-06-22T12:47:34;835.00;;;773.27;;
40971;SDS011;26701;47.408;19.174;2023-06-22T12:50:00;920.15;;;851.92;;
40971;SDS011;26701;47.408;19.174;2023-06-22T12:52:27;843.30;;;781.47;;
40971;SDS011;26701;47.408;19.174;2023-06-22T12:54:53;1173.75;;;999.90;;
40971;SDS011;26701;47.408;19.174;2023-06-22T12:57:19;1100.68;;;999.90;;
40971;SDS011;26701;47.408;19.174;2023-06-22T12:59:45;1086.32;;;995.97;;
40971;SDS011;26701;47.408;19.174;2023-06-22T13:02:11;767.38;;;711.45;;
40971;SDS011;26701;47.408;19.174;2023-06-22T13:04:38;733.40;;;680.08;;
40971;SDS011;26701;47.408;19.174;2023-06-22T13:07:04;731.03;;;677.30;;
40971;SDS011;26701;47.408;19.174;2023-06-22T13:09:30;768.85;;;713.03;;
40971;SDS011;26701;47.408;19.174;2023-06-22T13:11:56;874.92;;;810.95;;
40971;SDS011;26701;47.408;19.174;2023-06-22T13:14:22;911.15;;;844.83;;
40971;SDS011;26701;47.408;19.174;2023-06-22T13:16:48;840.60;;;779.70;;
40971;SDS011;26701;47.408;19.174;2023-06-22T13:19:14;732.83;;;679.85;;
40971;SDS011;26701;47.408;19.174;2023-06-22T13:21:40;752.88;;;698.40;;
40971;SDS011;26701;47.408;19.174;2023-06-22T13:24:06;763.55;;;708.05;;
40971;SDS011;26701;47.408;19.174;2023-06-22T13:26:32;650.00;;;602.03;;
40971;SDS011;26701;47.408;19.174;2023-06-22T13:28:58;641.40;;;594.50;;
40971;SDS011;26701;47.408;19.174;2023-06-22T13:31:24;636.05;;;589.78;;
40971;SDS011;26701;47.408;19.174;2023-06-22T13:33:51;586.05;;;543.63;;
40971;SDS011;26701;47.408;19.174;2023-06-22T13:36:17;654.83;;;607.30;;
40971;SDS011;26701;47.408;19.174;2023-06-22T13:38:44;804.88;;;747.40;;
40971;SDS011;26701;47.408;19.174;2023-06-22T13:41:10;671.78;;;623.33;;
40971;SDS011;26701;47.408;19.174;2023-06-22T13:43:36;599.13;;;555.88;;
40971;SDS011;26701;47.408;19.174;2023-06-22T13:46:02;555.28;;;515.58;;
40971;SDS011;26701;47.408;19.174;2023-06-22T13:48:28;791.85;;;733.40;;
40971;SDS011;26701;47.408;19.174;2023-06-22T13:50:54;522.20;;;485.27;;
40971;SDS011;26701;47.408;19.174;2023-06-22T13:53:20;539.55;;;501.17;;